createdAt,value
2018-04-19T07:45:09.015Z,99.99
2018-04-19T07:45:21.653Z,99.99
2018-04-19T07:45:34.244Z,99.99
2018-04-19T07:45:46.953Z,99.99
2018-04-19T07:45:59.560Z,99.99
2018-04-19T07:46:12.204Z,99.99
2018-04-19T07:46:24.803Z,99.99
2018-04-19T07:46:37.428Z,99.99
2018-04-19T07:46:50.050Z,99.99
2018-04-19T07:47:02.664Z,99.99
2018-04-19T07:47:15.336Z,99.99
2018-04-19T07:47:27.930Z,99.99
2018-04-19T07:47:40.538Z,99.99
2018-04-19T07:47:53.124Z,99.99
2018-04-19T07:48:05.725Z,99.99
2018-04-19T07:48:18.313Z,99.99
2018-04-19T07:48:30.910Z,99.99
2018-04-19T07:48:43.499Z,99.99
2018-04-19T07:48:56.116Z,99.99
2018-04-19T07:49:08.712Z,99.99
2018-04-19T07:49:21.329Z,99.99
2018-04-19T07:49:33.953Z,99.99
2018-04-19T07:49:46.571Z,99.99
2018-04-19T07:49:59.181Z,99.99
2018-04-19T07:50:11.798Z,99.99
2018-04-19T07:50:24.430Z,99.99
2018-04-19T07:50:37.006Z,99.99
2018-04-19T07:50:49.584Z,99.99
2018-04-19T07:51:02.604Z,99.96
2018-04-19T07:51:15.177Z,99.99
2018-04-19T07:51:27.838Z,99.58
2018-04-19T07:51:40.365Z,99.58
2018-04-19T07:51:52.951Z,99.58
2018-04-19T07:52:05.583Z,99.19
2018-04-19T07:52:18.206Z,98.81
2018-04-19T07:52:30.875Z,98.72
2018-04-19T07:52:43.507Z,98.52
2018-04-19T07:52:56.101Z,97.76
2018-04-19T07:53:08.696Z,97.95
2018-04-19T07:53:21.298Z,97.28
2018-04-19T07:53:33.914Z,97.56
2018-04-19T07:53:46.507Z,96.99
2018-04-19T07:53:59.101Z,96.61
2018-04-19T07:54:11.716Z,95.84
2018-04-19T07:54:24.308Z,95.36
2018-04-19T07:54:36.903Z,94.89
2018-04-19T07:54:49.565Z,94.31
2018-04-19T07:55:02.189Z,93.93
2018-04-19T07:55:14.827Z,93.54
2018-04-19T07:55:27.419Z,93.44
2018-04-19T07:55:40.049Z,92.87
2018-04-19T07:55:52.632Z,92.91
2018-04-19T07:56:05.223Z,92.72
2018-04-19T07:56:17.821Z,92.34
2018-04-19T07:56:30.498Z,91.96
2018-04-19T07:56:43.117Z,91.48
2018-04-19T07:56:55.761Z,91.09
2018-04-19T07:57:08.450Z,90.81
2018-04-19T07:57:21.130Z,90.61
2018-04-19T07:57:33.791Z,89.85
2018-04-19T07:57:46.438Z,89.65
2018-04-19T07:57:59.134Z,89.27
2018-04-19T07:58:11.685Z,88.41
2018-04-19T07:58:24.277Z,88.60
2018-04-19T07:58:36.872Z,87.59
2018-04-19T07:58:49.514Z,86.92
2018-04-19T07:59:02.139Z,86.54
2018-04-19T07:59:14.759Z,85.86
2018-04-19T07:59:27.394Z,85.58
2018-04-19T07:59:40.012Z,85.19
2018-04-19T07:59:52.608Z,84.52
2018-04-19T08:00:05.199Z,84.42
2018-04-19T08:00:17.799Z,83.94
2018-04-19T08:00:30.423Z,83.85
2018-04-19T08:00:43.031Z,83.85
2018-04-19T08:00:55.626Z,83.27
2018-04-19T08:01:08.239Z,82.89
2018-04-19T08:01:20.835Z,82.60
2018-04-19T08:01:33.504Z,82.12
2018-04-19T08:01:46.121Z,81.26
2018-04-19T08:01:58.737Z,81.07
2018-04-19T08:02:11.354Z,80.63
2018-04-19T08:02:23.951Z,80.05
2018-04-19T08:02:36.554Z,80.24
2018-04-19T08:02:49.166Z,79.38
2018-04-19T08:03:01.763Z,79.28
2018-04-19T08:03:14.383Z,78.80
2018-04-19T08:03:26.982Z,78.42
2018-04-19T08:03:39.593Z,78.80
2018-04-19T08:03:52.191Z,78.52
2018-04-19T08:04:04.782Z,78.23
2018-04-19T08:04:17.398Z,77.84
2018-04-19T08:04:30.014Z,77.46
2018-04-19T08:04:42.606Z,77.26
2018-04-19T08:04:55.248Z,77.36
2018-04-19T08:05:07.827Z,77.01
2018-04-19T08:05:20.463Z,76.92
2018-04-19T08:05:33.016Z,76.54
2018-04-19T08:05:45.635Z,76.34
2018-04-19T08:05:58.243Z,75.67
2018-04-19T08:06:10.829Z,75.67
2018-04-19T08:06:23.427Z,75.87
2018-04-19T08:06:36.049Z,75.67
2018-04-19T08:06:48.662Z,75.00
2018-04-19T08:07:01.307Z,75.00
2018-04-19T08:07:13.904Z,75.29
2018-04-19T08:07:26.496Z,74.81
2018-04-19T08:07:39.092Z,73.94
2018-04-19T08:07:51.681Z,73.75
2018-04-19T08:08:04.288Z,73.75
2018-04-19T08:08:16.921Z,73.46
2018-04-19T08:08:29.556Z,73.56
2018-04-19T08:08:42.147Z,72.99
2018-04-19T08:08:54.768Z,73.08
2018-04-19T08:09:07.436Z,73.08
2018-04-19T08:09:20.061Z,73.18
2018-04-19T08:09:32.655Z,72.79
2018-04-19T08:09:45.250Z,72.44
2018-04-19T08:09:57.868Z,73.02
2018-04-19T08:10:10.488Z,72.92
2018-04-19T08:10:23.091Z,72.64
2018-04-19T08:10:35.683Z,72.54
2018-04-19T08:10:48.422Z,72.44
2018-04-19T08:11:01.133Z,72.54
2018-04-19T08:11:13.832Z,72.16
2018-04-19T08:11:26.541Z,71.96
2018-04-19T08:11:39.222Z,71.67
2018-04-19T08:11:51.789Z,71.19
2018-04-19T08:12:04.516Z,71.39
2018-04-19T08:12:17.566Z,71.58
2018-04-19T08:12:30.613Z,70.90
2018-04-19T08:12:43.206Z,71.19
2018-04-19T08:12:56.311Z,71.10
2018-04-19T08:13:08.899Z,70.62
2018-04-19T08:13:21.781Z,70.81
2018-04-19T08:13:34.847Z,70.90
2018-04-19T08:13:47.496Z,70.62
2018-04-19T08:14:00.085Z,70.23
2018-04-19T08:14:12.719Z,70.62
2018-04-19T08:14:25.403Z,70.43
2018-04-19T08:14:38.037Z,70.52
2018-04-19T08:14:50.699Z,70.62
2018-04-19T08:15:03.344Z,70.37
2018-04-19T08:15:15.967Z,70.56
2018-04-19T08:15:28.681Z,69.89
2018-04-19T08:15:41.376Z,70.07
2018-04-19T08:15:54.608Z,70.17
2018-04-19T08:16:07.248Z,70.17
2018-04-19T08:16:20.418Z,69.69
2018-04-19T08:16:33.413Z,69.69
2018-04-19T08:16:46.028Z,70.27
2018-04-19T08:16:58.983Z,69.98
2018-04-19T08:17:11.749Z,69.69
2018-04-19T08:17:24.669Z,70.37
2018-04-19T08:17:37.286Z,70.17
2018-04-19T08:17:50.004Z,70.75
2018-04-19T08:18:02.626Z,70.56
2018-04-19T08:18:15.597Z,70.65
2018-04-19T08:18:28.251Z,70.65
2018-04-19T08:18:41.273Z,70.65
2018-04-19T08:18:54.393Z,70.65
2018-04-19T08:19:06.893Z,70.46
2018-04-19T08:19:19.530Z,70.50
2018-04-19T08:19:32.179Z,70.56
2018-04-19T08:19:44.790Z,70.59
2018-04-19T08:19:57.389Z,70.68
2018-04-19T08:20:10.014Z,70.68
2018-04-19T08:20:22.624Z,70.59
2018-04-19T08:20:35.215Z,70.21
2018-04-19T08:20:47.811Z,70.21
2018-04-19T08:21:00.405Z,70.30
2018-04-19T08:21:13.002Z,70.50
2018-04-19T08:21:25.590Z,70.50
2018-04-19T08:21:38.190Z,70.59
2018-04-19T08:21:50.785Z,70.50
2018-04-19T08:22:03.379Z,70.01
2018-04-19T08:22:15.972Z,69.82
2018-04-19T08:22:28.592Z,70.11
2018-04-19T08:22:41.185Z,70.01
2018-04-19T08:22:53.785Z,70.01
2018-04-19T08:23:06.405Z,69.92
2018-04-19T08:23:19.027Z,69.92
2018-04-19T08:23:31.615Z,69.92
2018-04-19T08:23:44.210Z,70.11
2018-04-19T08:23:56.805Z,70.01
2018-04-19T08:24:09.405Z,70.01
2018-04-19T08:24:22.000Z,70.21
2018-04-19T08:24:34.616Z,70.11
2018-04-19T08:24:47.186Z,69.63
2018-04-19T08:24:59.799Z,70.21
2018-04-19T08:25:12.392Z,69.76
2018-04-19T08:25:24.985Z,70.11
2018-04-19T08:25:37.578Z,69.76
2018-04-19T08:25:50.169Z,70.15
2018-04-19T08:26:02.774Z,69.82
2018-04-19T08:26:15.868Z,69.82
2018-04-19T08:26:29.039Z,69.85
2018-04-19T08:26:42.106Z,70.15
2018-04-19T08:26:54.909Z,70.05
2018-04-19T08:27:07.568Z,69.95
2018-04-19T08:27:20.870Z,69.95
2018-04-19T08:27:33.477Z,69.57
2018-04-19T08:27:46.063Z,69.47
2018-04-19T08:27:58.654Z,69.57
2018-04-19T08:28:11.248Z,69.47
2018-04-19T08:28:23.873Z,69.57
2018-04-19T08:28:36.500Z,69.57
2018-04-19T08:28:49.095Z,69.47
2018-04-19T08:29:01.698Z,69.38
2018-04-19T08:29:14.308Z,69.38
2018-04-19T08:29:26.912Z,69.47
2018-04-19T08:29:39.502Z,69.38
2018-04-19T08:29:52.098Z,69.57
2018-04-19T08:30:04.702Z,69.57
2018-04-19T08:30:17.309Z,69.67
2018-04-19T08:30:29.908Z,69.57
2018-04-19T08:30:42.521Z,69.57
2018-04-19T08:30:55.126Z,69.95
2018-04-19T08:31:07.760Z,70.05
2018-04-19T08:31:20.367Z,69.67
2018-04-19T08:31:32.933Z,69.85
2018-04-19T08:31:45.557Z,70.05
2018-04-19T08:31:58.139Z,69.79
2018-04-19T08:32:10.738Z,69.95
2018-04-19T08:32:23.349Z,69.60
2018-04-19T08:32:35.942Z,69.85
2018-04-19T08:32:49.264Z,69.22
2018-04-19T08:33:02.307Z,69.28
2018-04-19T08:33:15.253Z,69.31
2018-04-19T08:33:28.068Z,69.22
2018-04-19T08:33:40.641Z,69.12
2018-04-19T08:33:53.595Z,69.51
2018-04-19T08:34:06.271Z,69.51
2018-04-19T08:34:19.408Z,69.51
2018-04-19T08:34:32.595Z,69.60
2018-04-19T08:34:45.601Z,69.47
2018-04-19T08:34:58.191Z,69.12
2018-04-19T08:35:10.827Z,69.22
2018-04-19T08:35:23.593Z,69.02
2018-04-19T08:35:36.568Z,69.38
2018-04-19T08:35:49.185Z,69.79
2018-04-19T08:36:01.847Z,69.02
2018-04-19T08:36:14.719Z,69.09
2018-04-19T08:36:27.869Z,69.31
2018-04-19T08:36:40.461Z,68.84
2018-04-19T08:36:53.086Z,68.93
2018-04-19T08:37:05.896Z,68.44
2018-04-19T08:37:18.492Z,68.54
2018-04-19T08:37:31.109Z,68.35
2018-04-19T08:37:43.708Z,68.13
2018-04-19T08:37:56.306Z,68.41
2018-04-19T08:38:08.989Z,68.13
2018-04-19T08:38:21.679Z,68.64
2018-04-19T08:38:34.302Z,68.16
2018-04-19T08:38:46.945Z,68.32
2018-04-19T08:38:59.585Z,67.97
2018-04-19T08:39:12.196Z,68.06
2018-04-19T08:39:24.838Z,68.06
2018-04-19T08:39:37.470Z,68.06
2018-04-19T08:39:50.081Z,67.93
2018-04-19T08:40:02.746Z,68.06
2018-04-19T08:40:15.338Z,67.87
2018-04-19T08:40:27.969Z,68.16
2018-04-19T08:40:40.589Z,68.16
2018-04-19T08:40:53.188Z,68.64
2018-04-19T08:41:05.821Z,68.44
2018-04-19T08:41:18.432Z,68.16
2018-04-19T08:41:31.061Z,68.44
2018-04-19T08:41:43.680Z,68.54
2018-04-19T08:41:56.277Z,68.44
2018-04-19T08:42:08.863Z,68.35
2018-04-19T08:42:21.461Z,68.44
2018-04-19T08:42:34.126Z,68.26
2018-04-19T08:42:46.758Z,68.06
2018-04-19T08:42:59.384Z,68.06
2018-04-19T08:43:11.971Z,68.06
2018-04-19T08:43:24.630Z,67.87
2018-04-19T08:43:37.298Z,68.16
2018-04-19T08:43:49.915Z,67.87
2018-04-19T08:44:02.544Z,67.77
2018-04-19T08:44:15.120Z,68.16
2018-04-19T08:44:27.765Z,67.39
2018-04-19T08:44:40.386Z,67.58
2018-04-19T08:44:52.985Z,67.68
2018-04-19T08:45:05.604Z,67.58
2018-04-19T08:45:18.219Z,67.39
2018-04-19T08:45:30.871Z,67.10
2018-04-19T08:45:43.573Z,66.91
2018-04-19T08:45:56.179Z,66.81
2018-04-19T08:46:08.810Z,66.52
2018-04-19T08:46:21.423Z,66.14
2018-04-19T08:46:34.016Z,65.94
2018-04-19T08:46:46.614Z,65.66
2018-04-19T08:46:59.223Z,65.59
2018-04-19T08:47:11.847Z,65.66
2018-04-19T08:47:24.491Z,65.56
2018-04-19T08:47:37.081Z,65.66
2018-04-19T08:47:49.701Z,65.56
2018-04-19T08:48:02.322Z,65.66
2018-04-19T08:48:14.947Z,65.46
2018-04-19T08:48:27.584Z,65.69
2018-04-19T08:48:40.205Z,65.40
2018-04-19T08:48:52.792Z,65.20
2018-04-19T08:49:05.438Z,65.75
2018-04-19T08:50:13.032Z,65.11
2018-04-19T08:50:25.623Z,64.82
2018-04-19T08:50:38.220Z,65.01
2018-04-19T08:50:50.817Z,64.73
2018-04-19T08:51:03.446Z,65.11
2018-04-19T08:51:16.052Z,64.92
2018-04-19T08:51:28.648Z,64.92
2018-04-19T08:51:41.248Z,64.92
2018-04-19T08:51:53.893Z,64.53
2018-04-19T08:52:06.507Z,65.01
2018-04-19T08:52:19.096Z,64.43
2018-04-19T08:52:31.721Z,64.25
2018-04-19T08:52:44.345Z,64.34
2018-04-19T08:52:56.934Z,63.85
2018-04-19T08:53:09.554Z,63.85
2018-04-19T08:53:22.167Z,63.76
2018-04-19T08:53:34.761Z,63.76
2018-04-19T08:53:47.357Z,63.76
2018-04-19T08:53:59.989Z,64.05
2018-04-19T08:54:12.578Z,63.98
2018-04-19T08:54:25.196Z,64.34
2018-04-19T08:54:37.814Z,64.34
2018-04-19T08:54:50.487Z,64.05
2018-04-19T08:55:03.077Z,64.05
2018-04-19T08:55:15.696Z,64.15
2018-04-19T08:55:28.290Z,64.25
2018-04-19T08:55:40.882Z,64.28
2018-04-19T08:55:53.483Z,63.85
2018-04-19T08:56:06.072Z,64.08
2018-04-19T08:56:18.695Z,64.08
2018-04-19T08:56:31.307Z,64.18
2018-04-19T08:56:43.901Z,63.79
2018-04-19T08:56:56.527Z,63.89
2018-04-19T08:57:09.157Z,63.70
2018-04-19T08:57:21.784Z,63.70
2018-04-19T08:57:34.428Z,63.79
2018-04-19T08:57:47.039Z,63.21
2018-04-19T08:57:59.628Z,63.79
2018-04-19T08:58:12.283Z,63.50
2018-04-19T08:58:24.888Z,63.70
2018-04-19T08:58:37.511Z,63.12
2018-04-19T08:58:50.169Z,63.02
2018-04-19T08:59:02.909Z,63.12
2018-04-19T08:59:15.577Z,63.31
2018-04-19T08:59:28.161Z,63.12
2018-04-19T08:59:40.792Z,62.73
2018-04-19T08:59:53.438Z,62.54
2018-04-19T09:00:06.061Z,62.45
2018-04-19T09:00:18.652Z,62.83
2018-04-19T09:00:31.249Z,62.54
2018-04-19T09:00:43.871Z,62.93
2018-04-19T09:00:56.487Z,62.63
2018-04-19T09:01:09.109Z,62.15
2018-04-19T09:01:21.758Z,62.06
2018-04-19T09:01:34.651Z,62.45
2018-04-19T09:01:47.210Z,62.25
2018-04-19T09:01:59.804Z,62.45
2018-04-19T09:02:12.442Z,62.15
2018-04-19T09:02:25.055Z,62.25
2018-04-19T09:02:37.657Z,62.45
2018-04-19T09:02:50.473Z,62.06
2018-04-19T09:03:03.079Z,61.87
2018-04-19T09:03:15.668Z,61.68
2018-04-19T09:03:28.330Z,62.06
2018-04-19T09:03:40.954Z,61.87
2018-04-19T09:03:53.550Z,61.58
2018-04-19T09:04:06.142Z,61.68
2018-04-19T09:04:18.736Z,61.87
2018-04-19T09:04:31.337Z,61.96
2018-04-19T09:04:43.931Z,61.96
2018-04-19T09:04:56.554Z,61.96
2018-04-19T09:05:09.143Z,61.99
2018-04-19T09:05:21.737Z,61.87
2018-04-19T09:05:34.332Z,61.71
2018-04-19T09:05:46.924Z,61.48
2018-04-19T09:05:59.512Z,61.68
2018-04-19T09:06:12.115Z,61.48
2018-04-19T09:06:24.735Z,61.38
2018-04-19T09:06:37.327Z,61.68
2018-04-19T09:06:49.950Z,61.00
2018-04-19T09:07:02.573Z,61.19
2018-04-19T09:07:15.168Z,61.10
2018-04-19T09:07:27.766Z,61.10
2018-04-19T09:07:40.358Z,60.80
2018-04-19T09:07:52.972Z,60.42
2018-04-19T09:08:05.545Z,60.71
2018-04-19T09:08:18.150Z,60.71
2018-04-19T09:08:30.768Z,60.71
2018-04-19T09:08:43.377Z,60.61
2018-04-19T09:08:55.977Z,60.61
2018-04-19T09:09:08.568Z,60.90
2018-04-19T09:09:21.157Z,60.61
2018-04-19T09:09:33.751Z,60.61
2018-04-19T09:09:46.383Z,60.32
2018-04-19T09:09:59.042Z,60.61
2018-04-19T09:10:11.649Z,59.94
2018-04-19T09:10:24.262Z,60.42
2018-04-19T09:10:36.864Z,60.23
2018-04-19T09:10:49.533Z,60.23
2018-04-19T09:11:02.154Z,60.42
2018-04-19T09:11:14.762Z,60.32
2018-04-19T09:11:27.379Z,60.13
2018-04-19T09:11:39.999Z,60.32
2018-04-19T09:11:52.595Z,60.42
2018-04-19T09:12:05.209Z,59.94
2018-04-19T09:12:17.805Z,59.45
2018-04-19T09:12:30.398Z,59.75
2018-04-19T09:12:43.033Z,59.65
2018-04-19T09:12:55.651Z,59.84
2018-04-19T09:13:08.249Z,59.27
2018-04-19T09:13:20.869Z,59.55
2018-04-19T09:13:33.463Z,59.36
2018-04-19T09:13:46.059Z,59.55
2018-04-19T09:13:58.677Z,59.27
2018-04-19T09:14:11.296Z,59.27
2018-04-19T09:14:23.890Z,59.36
2018-04-19T09:14:36.469Z,59.27
2018-04-19T09:14:49.115Z,59.65
2018-04-19T09:15:01.734Z,59.65
2018-04-19T09:15:14.352Z,59.27
2018-04-19T09:15:26.942Z,59.45
2018-04-19T09:15:39.540Z,59.75
2018-04-19T09:15:52.135Z,59.07
2018-04-19T09:16:04.729Z,58.88
2018-04-19T09:16:17.400Z,59.27
2018-04-19T09:16:29.992Z,59.07
2018-04-19T09:16:42.590Z,58.88
2018-04-19T09:16:55.231Z,59.27
2018-04-19T09:17:07.879Z,59.45
2018-04-19T09:17:20.467Z,59.55
2018-04-19T09:17:33.061Z,59.45
2018-04-19T09:17:45.656Z,59.36
2018-04-19T09:17:58.267Z,59.55
2018-04-19T09:18:10.868Z,59.45
2018-04-19T09:18:23.486Z,59.45
2018-04-19T09:18:36.084Z,58.97
2018-04-19T09:18:48.674Z,59.27
2018-04-19T09:19:01.267Z,59.07
2018-04-19T09:19:13.866Z,59.07
2018-04-19T09:19:26.536Z,58.97
2018-04-19T09:19:39.076Z,59.07
2018-04-19T09:19:51.668Z,58.49
2018-04-19T09:20:04.266Z,58.65
2018-04-19T09:20:16.859Z,58.40
2018-04-19T09:20:29.488Z,58.56
2018-04-19T09:20:42.097Z,58.69
2018-04-19T09:20:54.697Z,58.49
2018-04-19T09:21:07.311Z,58.69
2018-04-19T09:21:19.908Z,58.30
2018-04-19T09:21:32.539Z,58.40
2018-04-19T09:21:45.222Z,58.49
2018-04-19T09:21:57.815Z,58.30
2018-04-19T09:22:10.451Z,58.40
2018-04-19T09:22:23.149Z,58.40
2018-04-19T09:22:35.630Z,58.59
2018-04-19T09:22:48.258Z,58.30
2018-04-19T09:23:00.860Z,58.40
2018-04-19T09:23:13.545Z,58.59
2018-04-19T09:23:26.046Z,58.30
2018-04-19T09:23:38.639Z,58.30
2018-04-19T09:23:51.238Z,58.30
2018-04-19T09:24:03.829Z,58.78
2018-04-19T09:24:16.417Z,58.69
2018-04-19T09:24:29.018Z,58.59
2018-04-19T09:24:41.609Z,58.30
2018-04-19T09:24:54.202Z,58.20
2018-04-19T09:25:06.821Z,58.88
2018-04-19T09:25:19.417Z,58.40
2018-04-19T09:25:32.013Z,58.69
2018-04-19T09:25:44.668Z,58.78
2018-04-19T09:25:57.279Z,58.78
2018-04-19T09:26:09.903Z,58.69
2018-04-19T09:26:22.779Z,58.59
2018-04-19T09:26:35.429Z,58.62
2018-04-19T09:26:48.093Z,58.49
2018-04-19T09:27:00.628Z,58.40
2018-04-19T09:27:13.252Z,58.33
2018-04-19T09:27:25.850Z,57.92
2018-04-19T09:27:38.446Z,58.11
2018-04-19T09:27:51.064Z,58.11
2018-04-19T09:28:03.665Z,58.49
2018-04-19T09:28:16.268Z,58.72
2018-04-19T09:28:28.887Z,58.59
2018-04-19T09:28:41.479Z,58.81
2018-04-19T09:28:54.121Z,58.69
2018-04-19T09:29:06.722Z,59.39
2018-04-19T09:29:19.323Z,58.91
2018-04-19T09:29:31.945Z,59.17
2018-04-19T09:29:44.533Z,59.39
2018-04-19T09:29:57.132Z,59.20
2018-04-19T09:30:09.765Z,59.30
2018-04-19T09:30:22.365Z,59.00
2018-04-19T09:30:34.941Z,59.20
2018-04-19T09:30:47.554Z,58.91
2018-04-19T09:31:00.195Z,59.30
2018-04-19T09:31:12.790Z,58.81
2018-04-19T09:31:25.389Z,58.52
2018-04-19T09:31:37.980Z,58.52
2018-04-19T09:31:50.570Z,59.00
2018-04-19T09:32:03.163Z,58.72
2018-04-19T09:32:15.757Z,58.52
2018-04-19T09:32:28.349Z,58.72
2018-04-19T09:32:40.965Z,58.81
2018-04-19T09:32:53.553Z,59.10
2018-04-19T09:33:06.151Z,59.30
2018-04-19T09:33:18.772Z,59.20
2018-04-19T09:33:31.395Z,59.10
2018-04-19T09:33:43.983Z,59.00
2018-04-19T09:33:56.559Z,59.39
2018-04-19T09:34:09.229Z,59.20
2018-04-19T09:34:21.820Z,59.39
2018-04-19T09:34:34.452Z,59.39
2018-04-19T09:34:47.032Z,59.00
2018-04-19T09:34:59.650Z,59.39
2018-04-19T09:35:12.249Z,59.39
2018-04-19T09:35:24.842Z,59.20
2018-04-19T09:35:37.438Z,59.20
2018-04-19T09:35:50.057Z,59.20
2018-04-19T09:36:02.678Z,59.20
2018-04-19T09:36:15.277Z,59.10
2018-04-19T09:36:27.877Z,59.00
2018-04-19T09:36:40.692Z,59.23
2018-04-19T09:36:53.295Z,59.13
2018-04-19T09:37:05.886Z,59.13
2018-04-19T09:37:18.479Z,59.20
2018-04-19T09:37:31.074Z,59.32
2018-04-19T09:37:43.665Z,59.32
2018-04-19T09:37:56.256Z,59.00
2018-04-19T09:38:08.853Z,59.23
2018-04-19T09:38:21.450Z,59.23
2018-04-19T09:38:34.062Z,59.03
2018-04-19T09:38:46.682Z,59.03
2018-04-19T09:38:59.300Z,59.32
2018-04-19T09:39:11.900Z,59.13
2018-04-19T09:39:24.490Z,59.32
2018-04-19T09:39:37.159Z,59.32
2018-04-19T09:39:49.699Z,59.32
2018-04-19T09:40:02.318Z,58.84
2018-04-19T09:40:14.914Z,58.75
2018-04-19T09:40:27.512Z,58.45
2018-04-19T09:40:40.130Z,58.65
2018-04-19T09:40:52.747Z,58.75
2018-04-19T09:41:05.369Z,58.75
2018-04-19T09:41:17.961Z,58.55
2018-04-19T09:41:30.577Z,58.55
2018-04-19T09:41:43.171Z,58.65
2018-04-19T09:41:55.762Z,58.84
2018-04-19T09:42:08.356Z,58.36
2018-04-19T09:42:20.954Z,58.17
2018-04-19T09:42:33.556Z,58.07
2018-04-19T09:42:46.146Z,58.07
2018-04-19T09:42:58.741Z,58.07
2018-04-19T09:43:11.403Z,58.17
2018-04-19T09:43:24.002Z,58.07
2018-04-19T09:43:36.596Z,58.07
2018-04-19T09:43:49.189Z,58.17
2018-04-19T09:44:01.792Z,57.97
2018-04-19T09:44:14.410Z,57.87
2018-04-19T09:44:27.006Z,58.04
2018-04-19T09:44:39.622Z,57.59
2018-04-19T09:44:52.243Z,57.49
2018-04-19T09:45:04.865Z,57.56
2018-04-19T09:45:17.476Z,57.78
2018-04-19T09:45:30.073Z,57.27
2018-04-19T09:45:42.677Z,56.98
2018-04-19T09:45:55.314Z,56.49
2018-04-19T09:46:07.932Z,56.49
2018-04-19T09:46:20.535Z,56.69
2018-04-19T09:46:33.152Z,56.49
2018-04-19T09:46:45.747Z,55.92
2018-04-19T09:46:58.345Z,55.73
2018-04-19T09:47:10.957Z,55.92
2018-04-19T09:47:23.552Z,55.54
2018-04-19T09:47:36.153Z,55.05
2018-04-19T09:47:48.747Z,54.96
2018-04-19T09:48:01.367Z,55.05
2018-04-19T09:48:13.959Z,55.05
2018-04-19T09:48:26.579Z,54.86
2018-04-19T09:48:39.182Z,54.38
2018-04-19T09:48:51.793Z,54.09
2018-04-19T09:49:04.385Z,54.47
2018-04-19T09:49:16.986Z,54.47
2018-04-19T09:49:29.609Z,54.57
2018-04-19T09:49:42.226Z,54.66
2018-04-19T09:49:54.841Z,53.89
2018-04-19T09:50:07.436Z,54.28
2018-04-19T09:50:20.059Z,53.61
2018-04-19T09:50:32.679Z,53.70
2018-04-19T09:50:45.272Z,53.61
2018-04-19T09:50:57.868Z,53.41
2018-04-19T09:51:10.506Z,53.73
2018-04-19T09:51:23.104Z,53.61
2018-04-19T09:51:35.722Z,53.73
2018-04-19T09:51:48.343Z,53.15
2018-04-19T09:52:00.936Z,53.13
2018-04-19T09:52:13.539Z,53.15
2018-04-19T09:52:26.153Z,53.34
2018-04-19T09:52:38.744Z,53.15
2018-04-19T09:52:51.338Z,53.44
2018-04-19T09:53:03.957Z,52.67
2018-04-19T09:53:16.569Z,52.86
2018-04-19T09:53:29.168Z,52.67
2018-04-19T09:53:41.762Z,52.76
2018-04-19T09:53:54.398Z,52.76
2018-04-19T09:54:07.034Z,52.86
2018-04-19T09:54:19.567Z,53.63
2018-04-19T09:54:32.182Z,53.25
2018-04-19T09:54:44.782Z,53.15
2018-04-19T09:54:57.394Z,53.15
2018-04-19T09:55:09.983Z,53.34
2018-04-19T09:55:22.579Z,53.92
2018-04-19T09:55:35.172Z,53.44
2018-04-19T09:55:47.765Z,53.83
2018-04-19T09:56:00.363Z,53.63
2018-04-19T09:56:12.957Z,53.53
2018-04-19T09:56:25.548Z,53.92
2018-04-19T09:56:38.169Z,54.11
2018-04-19T09:56:50.788Z,54.40
2018-04-19T09:57:03.388Z,54.50
2018-04-19T09:57:15.987Z,54.02
2018-04-19T09:57:28.602Z,54.79
2018-04-19T09:57:41.190Z,54.79
2018-04-19T09:57:53.783Z,54.60
2018-04-19T09:58:06.386Z,54.60
2018-04-19T09:58:18.998Z,54.60
2018-04-19T09:58:31.630Z,54.31
2018-04-19T09:58:44.183Z,54.40
2018-04-19T09:58:56.782Z,54.40
2018-04-19T09:59:09.403Z,54.60
2018-04-19T09:59:22.023Z,54.79
2018-04-19T09:59:34.622Z,55.27
2018-04-19T09:59:47.212Z,54.98
2018-04-19T09:59:59.805Z,54.88
2018-04-19T10:00:12.451Z,54.88
2018-04-19T10:00:25.056Z,55.18
2018-04-19T10:00:37.652Z,54.60
2018-04-19T10:00:50.223Z,54.40
2018-04-19T10:01:02.817Z,54.60
2018-04-19T10:01:15.415Z,54.21
2018-04-19T10:01:28.034Z,54.60
2018-04-19T10:01:40.653Z,54.50
2018-04-19T10:01:53.250Z,54.88
2018-04-19T10:02:05.852Z,54.50
2018-04-19T10:02:18.442Z,54.40
2018-04-19T10:02:31.035Z,54.88
2018-04-19T10:02:43.632Z,54.79
2018-04-19T10:02:56.296Z,54.40
2018-04-19T10:03:08.894Z,53.92
2018-04-19T10:03:21.493Z,54.53
2018-04-19T10:03:34.085Z,54.40
2018-04-19T10:03:46.682Z,54.31
2018-04-19T10:03:59.281Z,54.11
2018-04-19T10:04:11.909Z,54.31
2018-04-19T10:04:24.476Z,54.40
2018-04-19T10:04:37.067Z,54.02
2018-04-19T10:04:49.669Z,54.24
2018-04-19T10:05:02.283Z,54.05
2018-04-19T10:05:14.880Z,54.02
2018-04-19T10:05:27.540Z,54.14
2018-04-19T10:05:40.138Z,54.11
2018-04-19T10:05:52.756Z,54.11
2018-04-19T10:06:05.354Z,53.92
2018-04-19T10:06:17.971Z,54.11
2018-04-19T10:06:30.567Z,54.02
2018-04-19T10:06:43.190Z,53.73
2018-04-19T10:06:55.780Z,53.83
2018-04-19T10:07:08.376Z,53.27
2018-04-19T10:07:20.997Z,53.37
2018-04-19T10:07:33.610Z,52.47
2018-04-19T10:07:46.204Z,52.47
2018-04-19T10:07:58.804Z,52.50
2018-04-19T10:08:11.424Z,52.50
2018-04-19T10:08:24.040Z,52.31
2018-04-19T10:08:36.638Z,52.37
2018-04-19T10:08:49.232Z,52.37
2018-04-19T10:09:01.864Z,52.31
2018-04-19T10:09:14.522Z,52.69
2018-04-19T10:09:27.183Z,52.57
2018-04-19T10:09:39.841Z,52.76
2018-04-19T10:09:52.425Z,52.67
2018-04-19T10:10:05.021Z,52.28
2018-04-19T10:10:17.621Z,52.47
2018-04-19T10:10:30.265Z,52.47
2018-04-19T10:10:42.849Z,53.05
2018-04-19T10:10:55.442Z,52.76
2018-04-19T10:11:08.035Z,52.79
2018-04-19T10:11:20.625Z,52.69
2018-04-19T10:11:33.221Z,52.59
2018-04-19T10:11:45.818Z,52.47
2018-04-19T10:11:58.487Z,52.67
2018-04-19T10:12:11.100Z,52.67
2018-04-19T10:12:23.699Z,53.34
2018-04-19T10:12:36.319Z,53.25
2018-04-19T10:12:48.914Z,53.53
2018-04-19T10:13:01.573Z,53.53
2018-04-19T10:13:14.208Z,53.63
2018-04-19T10:13:26.896Z,54.11
2018-04-19T10:13:39.552Z,54.50
2018-04-19T10:13:52.187Z,54.40
2018-04-19T10:14:04.788Z,54.60
2018-04-19T10:14:17.407Z,54.79
2018-04-19T10:14:30.028Z,54.02
2018-04-19T10:14:42.658Z,54.02
2018-04-19T10:14:55.269Z,54.50
2018-04-19T10:15:07.862Z,54.40
2018-04-19T10:15:20.455Z,54.21
2018-04-19T10:15:33.054Z,54.40
2018-04-19T10:15:45.647Z,54.02
2018-04-19T10:15:58.251Z,53.92
2018-04-19T10:16:10.910Z,53.83
2018-04-19T10:16:23.468Z,53.63
2018-04-19T10:16:36.065Z,53.73
2018-04-19T10:16:48.680Z,53.73
2018-04-19T10:17:01.302Z,53.63
2018-04-19T10:17:13.916Z,53.73
2018-04-19T10:17:26.509Z,53.34
2018-04-19T10:17:39.107Z,53.34
2018-04-19T10:17:51.703Z,53.34
2018-04-19T10:18:04.299Z,53.34
2018-04-19T10:18:16.892Z,53.34
2018-04-19T10:18:29.486Z,52.86
2018-04-19T10:18:42.104Z,52.86
2018-04-19T10:18:54.728Z,52.67
2018-04-19T10:19:07.323Z,52.67
2018-04-19T10:19:19.939Z,52.98
2018-04-19T10:19:32.535Z,53.15
2018-04-19T10:19:45.128Z,53.73
2018-04-19T10:19:57.721Z,53.63
2018-04-19T10:20:10.319Z,53.66
2018-04-19T10:20:22.936Z,54.02
2018-04-19T10:20:35.535Z,54.31
2018-04-19T10:20:48.129Z,54.43
2018-04-19T10:21:00.743Z,54.53
2018-04-19T10:21:13.353Z,54.53
2018-04-19T10:21:26.038Z,54.50
2018-04-19T10:21:38.530Z,54.60
2018-04-19T10:21:51.148Z,54.60
2018-04-19T10:22:03.753Z,54.43
2018-04-19T10:22:16.355Z,54.60
2018-04-19T10:22:28.948Z,54.91
2018-04-19T10:22:41.549Z,54.88
2018-04-19T10:22:54.161Z,54.40
2018-04-19T10:23:06.758Z,54.43
2018-04-19T10:23:19.377Z,54.40
2018-04-19T10:23:31.997Z,54.88
2018-04-19T10:23:44.570Z,55.01
2018-04-19T10:23:57.190Z,54.82
2018-04-19T10:24:09.779Z,54.72
2018-04-19T10:24:22.378Z,54.62
2018-04-19T10:24:34.998Z,54.82
2018-04-19T10:24:47.588Z,54.72
2018-04-19T10:25:00.183Z,54.53
2018-04-19T10:25:12.777Z,54.43
2018-04-19T10:25:25.370Z,54.82
2018-04-19T10:25:37.991Z,54.91
2018-04-19T10:25:50.587Z,54.82
2018-04-19T10:26:03.185Z,54.05
2018-04-19T10:26:15.774Z,54.14
2018-04-19T10:26:28.372Z,54.14
2018-04-19T10:26:40.969Z,54.14
2018-04-19T10:26:53.583Z,54.62
2018-04-19T10:27:06.172Z,54.33
2018-04-19T10:27:18.824Z,54.62
2018-04-19T10:27:31.387Z,54.33
2018-04-19T10:27:43.981Z,53.75
2018-04-19T10:27:56.599Z,53.66
2018-04-19T10:28:09.221Z,53.27
2018-04-19T10:28:21.814Z,52.98
2018-04-19T10:28:34.407Z,52.40